Irvinestown, United Kingdom
Current Conditions -  °F | °C
As of 4:30 PM on Thursday 23 Oct 2014 (Local Time) from EISG Reporting Station
Overcast Overcast  
Wind Chill: 54°   Ceiling: 2100
Heat Index: 54°   Visibility: 4mi
Dew Point: 52°   Wind: 14mph
Humidity: 94%   Direction: 240°WSW
Pressure: 29.77"   Gusts: NA
Location:  54.47°N, 7.63°W
Report Text: EISG 231530Z 24012KT 6000 FEW006 BKN021 OVC048 12/11 Q1008 RERA
Loading
Personal Weather Stations






























Interactive Weather Map
Tropical Storm Tracking
New forecast layout! Learn more

10-Day Weather Forecast

Advertisements
Track Severe Weather on mobile